Time,TemperatureF,DewpointF,PressureIn,WindDirection,WindDirectionDegrees,WindSpeedMPH,WindSpeedGustMPH,Humidity,HourlyPrecipIn,Conditions,Clouds,dailyrainin,SoftwareType,DateUTC
2017-10-16 00:00:00,52.5,46.8,30.17,West,276,1.0,2.0,81,0.00,,---,0.00,VWS V15.00,2017-10-16 04:00:00,
2017-10-16 00:10:00,52.3,47.0,30.17,West,263,1.0,4.0,82,0.00,,---,0.00,VWS V15.00,2017-10-16 04:10:00,
2017-10-16 00:15:00,52.1,46.8,30.17,West,278,1.0,3.0,82,0.00,,---,0.00,VWS V15.00,2017-10-16 04:15:00,
2017-10-16 00:20:00,52.0,46.7,30.17,West,281,0.0,1.0,82,0.00,,---,0.00,VWS V15.00,2017-10-16 04:20:00,
2017-10-16 00:25:00,51.8,46.5,30.17,West,260,0.0,2.0,82,0.00,,---,0.00,VWS V15.00,2017-10-16 04:25:00,
2017-10-16 00:30:00,51.7,46.7,30.17,West,260,0.0,1.0,83,0.00,,---,0.00,VWS V15.00,2017-10-16 04:30:00,
2017-10-16 00:40:00,51.5,46.8,30.18,West,264,0.0,0.0,84,0.00,,---,0.00,VWS V15.00,2017-10-16 04:40:00,
2017-10-16 00:45:00,51.5,46.8,30.18,West,264,0.0,0.0,84,0.00,,---,0.00,VWS V15.00,2017-10-16 04:45:00,
2017-10-16 00:50:00,51.4,46.7,30.18,West,264,0.0,0.0,84,0.00,,---,0.00,VWS V15.00,2017-10-16 04:50:00,
2017-10-16 01:00:00,51.3,47.0,30.18,West,269,0.0,0.0,85,0.00,,---,0.00,VWS V15.00,2017-10-16 05:00:00,
2017-10-16 01:05:00,51.3,47.0,30.18,West,267,0.0,0.0,85,0.00,,---,0.00,VWS V15.00,2017-10-16 05:05:00,
2017-10-16 01:10:00,51.3,47.0,30.18,West,267,0.0,0.0,85,0.00,,---,0.00,VWS V15.00,2017-10-16 05:10:00,
2017-10-16 01:20:00,51.3,47.0,30.18,West,267,0.0,0.0,85,0.00,,---,0.00,VWS V15.00,2017-10-16 05:20:00,
2017-10-16 01:25:00,51.2,46.8,30.18,West,267,0.0,0.0,85,0.00,,---,0.00,VWS V15.00,2017-10-16 05:25:00,
2017-10-16 01:30:00,51.1,46.8,30.18,West,267,0.0,0.0,85,0.00,,---,0.00,VWS V15.00,2017-10-16 05:30:00,
2017-10-16 01:35:00,50.8,46.8,30.18,West,269,0.0,0.0,86,0.00,,---,0.00,VWS V15.00,2017-10-16 05:35:00,
2017-10-16 01:45:00,50.3,46.6,30.18,West,267,0.0,0.0,87,0.00,,---,0.00,VWS V15.00,2017-10-16 05:45:00,
2017-10-16 01:50:00,50.0,46.6,30.18,West,267,0.0,0.0,88,0.00,,---,0.00,VWS V15.00,2017-10-16 05:50:00,
2017-10-16 01:55:00,49.7,46.3,30.18,West,267,0.0,0.0,88,0.00,,---,0.00,VWS V15.00,2017-10-16 05:55:00,
2017-10-16 02:00:00,49.5,46.4,30.18,West,266,0.0,0.0,89,0.00,,---,0.00,VWS V15.00,2017-10-16 06:00:00,
2017-10-16 02:10:00,49.0,46.2,30.19,West,267,0.0,0.0,90,0.00,,---,0.00,VWS V15.00,2017-10-16 06:10:00,
2017-10-16 02:15:00,48.7,45.9,30.19,West,267,0.0,0.0,90,0.00,,---,0.00,VWS V15.00,2017-10-16 06:15:00,
2017-10-16 02:25:00,48.4,46.2,30.19,West,268,0.0,0.0,92,0.00,,---,0.00,VWS V15.00,2017-10-16 06:25:00,
2017-10-16 02:30:00,48.3,46.1,30.19,West,267,0.0,0.0,92,0.00,,---,0.00,VWS V15.00,2017-10-16 06:30:00,
2017-10-16 02:35:00,48.3,46.1,30.19,West,267,0.0,0.0,92,0.00,,---,0.00,VWS V15.00,2017-10-16 06:35:00,
2017-10-16 02:45:00,48.0,45.8,30.19,West,267,0.0,0.0,92,0.00,,---,0.00,VWS V15.00,2017-10-16 06:45:00,
2017-10-16 02:55:00,47.5,45.6,30.20,West,267,0.0,0.0,93,0.00,,---,0.00,VWS V15.00,2017-10-16 06:55:00,
2017-10-16 03:05:00,47.2,45.6,30.20,West,267,0.0,0.0,94,0.00,,---,0.00,VWS V15.00,2017-10-16 07:05:00,
2017-10-16 03:10:00,47.1,45.5,30.20,West,267,0.0,0.0,94,0.00,,---,0.00,VWS V15.00,2017-10-16 07:10:00,
2017-10-16 03:15:00,47.1,45.7,30.20,West,267,0.0,0.0,95,0.00,,---,0.00,VWS V15.00,2017-10-16 07:15:00,
2017-10-16 03:20:00,46.8,45.5,30.20,West,267,0.0,0.0,95,0.00,,---,0.00,VWS V15.00,2017-10-16 07:20:00,
2017-10-16 03:25:00,46.7,45.3,30.20,West,267,0.0,0.0,95,0.00,,---,0.00,VWS V15.00,2017-10-16 07:25:00,
2017-10-16 03:35:00,46.7,45.6,30.20,West,267,0.0,0.0,96,0.00,,---,0.00,VWS V15.00,2017-10-16 07:35:00,
2017-10-16 03:40:00,46.7,45.6,30.20,West,267,0.0,0.0,96,0.00,,---,0.00,VWS V15.00,2017-10-16 07:40:00,
2017-10-16 03:45:00,46.6,45.5,30.20,West,267,0.0,0.0,96,0.00,,---,0.00,VWS V15.00,2017-10-16 07:45:00,
2017-10-16 03:50:00,46.4,45.3,30.20,West,267,0.0,0.0,96,0.00,,---,0.00,VWS V15.00,2017-10-16 07:50:00,
2017-10-16 04:00:00,45.9,44.8,30.20,West,267,0.0,0.0,96,0.00,,---,0.00,VWS V15.00,2017-10-16 08:00:00,
2017-10-16 04:05:00,45.8,44.7,30.20,West,267,0.0,0.0,96,0.00,,---,0.00,VWS V15.00,2017-10-16 08:05:00,
2017-10-16 04:20:00,45.5,44.7,30.20,West,267,0.0,0.0,97,0.00,,---,0.00,VWS V15.00,2017-10-16 08:20:00,
2017-10-16 04:25:00,45.2,44.1,30.21,West,267,0.0,0.0,96,0.00,,---,0.00,VWS V15.00,2017-10-16 08:25:00,
2017-10-16 04:30:00,45.2,44.4,30.21,West,267,0.0,0.0,97,0.00,,---,0.00,VWS V15.00,2017-10-16 08:30:00,
2017-10-16 04:35:00,45.1,44.3,30.20,West,267,0.0,0.0,97,0.00,,---,0.00,VWS V15.00,2017-10-16 08:35:00,
2017-10-16 04:40:00,45.0,44.2,30.21,West,267,0.0,0.0,97,0.00,,---,0.00,VWS V15.00,2017-10-16 08:40:00,
2017-10-16 04:45:00,45.0,44.2,30.21,West,267,0.0,0.0,97,0.00,,---,0.00,VWS V15.00,2017-10-16 08:45:00,
2017-10-16 04:50:00,45.1,44.3,30.21,West,267,0.0,0.0,97,0.00,,---,0.00,VWS V15.00,2017-10-16 08:50:00,
2017-10-16 05:00:00,45.1,44.6,30.21,West,267,0.0,0.0,98,0.00,,---,0.00,VWS V15.00,2017-10-16 09:00:00,
2017-10-16 05:05:00,45.1,44.6,30.22,West,267,0.0,0.0,98,0.00,,---,0.00,VWS V15.00,2017-10-16 09:05:00,
2017-10-16 05:15:00,44.9,44.4,30.22,West,268,0.0,0.0,98,0.00,,---,0.00,VWS V15.00,2017-10-16 09:15:00,
2017-10-16 05:25:00,45.0,44.5,30.22,West,267,0.0,0.0,98,0.00,,---,0.00,VWS V15.00,2017-10-16 09:25:00,
2017-10-16 05:30:00,45.2,44.7,30.22,West,267,0.0,0.0,98,0.00,,---,0.00,VWS V15.00,2017-10-16 09:30:00,
2017-10-16 05:35:00,45.3,44.8,30.22,West,274,0.0,0.0,98,0.00,,---,0.00,VWS V15.00,2017-10-16 09:35:00,
2017-10-16 05:40:00,45.4,45.1,30.22,West,274,0.0,0.0,99,0.00,,---,0.00,VWS V15.00,2017-10-16 09:40:00,
2017-10-16 05:45:00,45.4,45.1,30.22,West,276,0.0,0.0,99,0.00,,---,0.00,VWS V15.00,2017-10-16 09:45:00,
2017-10-16 05:55:00,45.4,45.1,30.23,West,276,0.0,0.0,99,0.00,,---,0.00,VWS V15.00,2017-10-16 09:55:00,
2017-10-16 06:00:00,45.5,45.2,30.23,NNE,30,0.0,0.0,99,0.00,,---,0.00,VWS V15.00,2017-10-16 10:00:00,
2017-10-16 06:10:00,45.6,45.3,30.23,North,9,0.0,0.0,99,0.00,,---,0.00,VWS V15.00,2017-10-16 10:10:00,
2017-10-16 06:15:00,45.6,45.3,30.23,North,9,0.0,0.0,99,0.00,,---,0.00,VWS V15.00,2017-10-16 10:15:00,
2017-10-16 06:20:00,45.5,45.2,30.23,North,9,0.0,0.0,99,0.00,,---,0.00,VWS V15.00,2017-10-16 10:20:00,
2017-10-16 06:25:00,45.4,44.9,30.23,North,8,0.0,0.0,98,0.00,,---,0.00,VWS V15.00,2017-10-16 10:25:00,
2017-10-16 06:30:00,45.3,44.8,30.23,North,8,0.0,0.0,98,0.00,,---,0.00,VWS V15.00,2017-10-16 10:30:00,
2017-10-16 06:35:00,45.2,44.7,30.24,North,9,0.0,0.0,98,0.00,,---,0.00,VWS V15.00,2017-10-16 10:35:00,
2017-10-16 06:45:00,44.9,44.4,30.24,North,8,0.0,0.0,98,0.00,,---,0.00,VWS V15.00,2017-10-16 10:45:00,
2017-10-16 06:50:00,44.8,44.3,30.24,North,8,0.0,0.0,98,0.00,,---,0.00,VWS V15.00,2017-10-16 10:50:00,
2017-10-16 06:55:00,44.5,44.0,30.24,North,8,0.0,0.0,98,0.00,,---,0.00,VWS V15.00,2017-10-16 10:55:00,
2017-10-16 07:00:00,44.3,43.8,30.24,North,9,0.0,0.0,98,0.00,,---,0.00,VWS V15.00,2017-10-16 11:00:00,
2017-10-16 07:05:00,44.2,43.7,30.25,North,8,0.0,0.0,98,0.00,,---,0.00,VWS V15.00,2017-10-16 11:05:00,
2017-10-16 07:15:00,44.1,43.8,30.25,North,8,0.0,0.0,99,0.00,,---,0.00,VWS V15.00,2017-10-16 11:15:00,
2017-10-16 07:20:00,44.2,43.9,30.25,North,8,0.0,0.0,99,0.00,,---,0.00,VWS V15.00,2017-10-16 11:20:00,
2017-10-16 07:25:00,44.1,43.8,30.25,North,8,0.0,0.0,99,0.00,,---,0.00,VWS V15.00,2017-10-16 11:25:00,
2017-10-16 07:30:00,43.8,43.5,30.26,North,8,0.0,0.0,99,0.00,,---,0.00,VWS V15.00,2017-10-16 11:30:00,
2017-10-16 07:40:00,43.4,43.1,30.26,North,9,0.0,0.0,99,0.00,,---,0.00,VWS V15.00,2017-10-16 11:40:00,
2017-10-16 07:45:00,43.2,42.9,30.26,North,8,0.0,0.0,99,0.00,,---,0.00,VWS V15.00,2017-10-16 11:45:00,
2017-10-16 07:50:00,43.1,42.8,30.26,North,8,0.0,0.0,99,0.00,,---,0.00,VWS V15.00,2017-10-16 11:50:00,
2017-10-16 07:55:00,43.0,42.7,30.26,North,8,0.0,0.0,99,0.00,,---,0.00,VWS V15.00,2017-10-16 11:55:00,
2017-10-16 08:05:00,42.9,42.6,30.27,North,9,0.0,0.0,99,0.00,,---,0.00,VWS V15.00,2017-10-16 12:05:00,
2017-10-16 08:15:00,43.3,43.0,30.27,North,8,0.0,0.0,99,0.00,,---,0.00,VWS V15.00,2017-10-16 12:15:00,
2017-10-16 08:20:00,43.2,42.9,30.27,North,9,0.0,0.0,99,0.00,,---,0.00,VWS V15.00,2017-10-16 12:20:00,
2017-10-16 08:25:00,43.2,42.9,30.28,North,9,0.0,0.0,99,0.00,,---,0.00,VWS V15.00,2017-10-16 12:25:00,
2017-10-16 08:30:00,43.4,43.1,30.28,North,9,0.0,0.0,99,0.00,,---,0.00,VWS V15.00,2017-10-16 12:30:00,
2017-10-16 08:35:00,43.9,43.6,30.28,North,9,0.0,0.0,99,0.00,,---,0.00,VWS V15.00,2017-10-16 12:35:00,
2017-10-16 08:40:00,45.5,45.2,30.28,North,9,0.0,0.0,99,0.00,,---,0.00,VWS V15.00,2017-10-16 12:40:00,
2017-10-16 08:45:00,47.2,47.2,30.28,North,9,0.0,0.0,100,0.00,,---,0.00,VWS V15.00,2017-10-16 12:45:00,
2017-10-16 08:55:00,49.6,49.6,30.29,North,9,0.0,0.0,100,0.00,,---,0.00,VWS V15.00,2017-10-16 12:55:00,
2017-10-16 09:00:00,50.0,50.0,30.29,North,9,0.0,0.0,100,0.00,,---,0.00,VWS V15.00,2017-10-16 13:00:00,
2017-10-16 09:05:00,50.0,50.0,30.29,North,8,0.0,0.0,100,0.00,,---,0.00,VWS V15.00,2017-10-16 13:05:00,
2017-10-16 09:10:00,49.9,49.6,30.29,NW,326,0.0,1.0,99,0.00,,---,0.00,VWS V15.00,2017-10-16 13:10:00,
2017-10-16 09:15:00,49.5,49.0,30.29,NW,320,0.0,2.0,98,0.00,,---,0.00,VWS V15.00,2017-10-16 13:15:00,
2017-10-16 09:20:00,49.3,48.5,30.30,NW,321,0.0,1.0,97,0.00,,---,0.00,VWS V15.00,2017-10-16 13:20:00,
2017-10-16 09:25:00,49.3,48.2,30.30,NW,321,0.0,0.0,96,0.00,,---,0.00,VWS V15.00,2017-10-16 13:25:00,
2017-10-16 09:35:00,50.3,48.9,30.31,WNW,288,0.0,1.0,95,0.00,,---,0.00,VWS V15.00,2017-10-16 13:35:00,
2017-10-16 09:40:00,51.0,49.3,30.31,NW,318,4.0,4.0,94,0.00,,---,0.00,VWS V15.00,2017-10-16 13:40:00,
2017-10-16 09:50:00,51.2,48.7,30.31,WNW,289,1.0,5.0,91,0.00,,---,0.00,VWS V15.00,2017-10-16 13:50:00,
2017-10-16 10:00:00,52.1,49.3,30.31,West,281,3.0,4.0,90,0.00,,---,0.00,VWS V15.00,2017-10-16 14:00:00,
2017-10-16 10:10:00,52.6,48.5,30.31,NW,311,1.0,7.0,86,0.00,,---,0.00,VWS V15.00,2017-10-16 14:10:00,
2017-10-16 10:15:00,53.0,48.9,30.31,NNW,346,3.0,4.0,86,0.00,,---,0.00,VWS V15.00,2017-10-16 14:15:00,
2017-10-16 10:25:00,52.3,47.3,30.31,NNW,338,5.0,9.0,83,0.00,,---,0.00,VWS V15.00,2017-10-16 14:25:00,
2017-10-16 10:30:00,52.3,47.3,30.31,WNW,286,2.0,8.0,83,0.00,,---,0.00,VWS V15.00,2017-10-16 14:30:00,
2017-10-16 10:40:00,53.6,48.6,30.31,West,260,1.0,2.0,83,0.00,,---,0.00,VWS V15.00,2017-10-16 14:40:00,
2017-10-16 10:50:00,54.8,47.7,30.31,NNE,33,1.0,5.0,77,0.00,,---,0.00,VWS V15.00,2017-10-16 14:50:00,
2017-10-16 11:00:00,55.3,48.2,30.31,West,272,1.0,3.0,77,0.00,,---,0.00,VWS V15.00,2017-10-16 15:00:00,
2017-10-16 11:05:00,55.4,47.3,30.31,NW,312,2.0,5.0,74,0.00,,---,0.00,VWS V15.00,2017-10-16 15:05:00,
2017-10-16 11:10:00,55.0,46.5,30.31,WNW,290,2.0,4.0,73,0.00,,---,0.00,VWS V15.00,2017-10-16 15:10:00,
2017-10-16 11:15:00,54.8,47.0,30.31,NW,308,1.0,3.0,75,0.00,,---,0.00,VWS V15.00,2017-10-16 15:15:00,
2017-10-16 11:20:00,55.1,47.0,30.32,NW,319,3.0,4.0,74,0.00,,---,0.00,VWS V15.00,2017-10-16 15:20:00,
2017-10-16 11:25:00,55.3,47.5,30.32,SSE,155,0.0,4.0,75,0.00,,---,0.00,VWS V15.00,2017-10-16 15:25:00,
2017-10-16 11:30:00,55.6,47.1,30.32,NW,312,2.0,5.0,73,0.00,,---,0.00,VWS V15.00,2017-10-16 15:30:00,
2017-10-16 11:40:00,56.4,48.6,30.32,NW,315,0.0,4.0,75,0.00,,---,0.00,VWS V15.00,2017-10-16 15:40:00,
2017-10-16 11:45:00,56.9,48.0,30.32,NNW,328,3.0,4.0,72,0.00,,---,0.00,VWS V15.00,2017-10-16 15:45:00,
2017-10-16 11:50:00,56.8,47.9,30.31,NW,319,2.0,3.0,72,0.00,,---,0.00,VWS V15.00,2017-10-16 15:50:00,
2017-10-16 11:55:00,56.1,47.6,30.31,WNW,302,0.0,5.0,73,0.00,,---,0.00,VWS V15.00,2017-10-16 15:55:00,
2017-10-16 12:00:00,55.7,47.9,30.32,NNW,337,1.0,1.0,75,0.00,,---,0.00,VWS V15.00,2017-10-16 16:00:00,
2017-10-16 12:05:00,55.8,47.7,30.32,WSW,238,0.0,2.0,74,0.00,,---,0.00,VWS V15.00,2017-10-16 16:05:00,
2017-10-16 12:10:00,56.6,48.1,30.32,NNW,347,1.0,4.0,73,0.00,,---,0.00,VWS V15.00,2017-10-16 16:10:00,
2017-10-16 12:15:00,56.5,46.8,30.32,WSW,250,1.0,3.0,70,0.00,,---,0.00,VWS V15.00,2017-10-16 16:15:00,
2017-10-16 12:20:00,56.2,46.6,30.32,NW,321,0.0,3.0,70,0.00,,---,0.00,VWS V15.00,2017-10-16 16:20:00,
2017-10-16 12:25:00,56.6,46.2,30.32,WSW,257,3.0,3.0,68,0.00,,---,0.00,VWS V15.00,2017-10-16 16:25:00,
2017-10-16 12:35:00,57.5,46.6,30.32,West,279,1.0,2.0,67,0.00,,---,0.00,VWS V15.00,2017-10-16 16:35:00,
2017-10-16 12:40:00,57.8,47.7,30.32,WNW,298,1.0,9.0,69,0.00,,---,0.00,VWS V15.00,2017-10-16 16:40:00,
2017-10-16 12:45:00,57.2,47.1,30.32,NE,37,0.0,5.0,69,0.00,,---,0.00,VWS V15.00,2017-10-16 16:45:00,
2017-10-16 12:50:00,56.9,46.8,30.32,North,352,1.0,4.0,69,0.00,,---,0.00,VWS V15.00,2017-10-16 16:50:00,
2017-10-16 12:55:00,57.2,46.4,30.32,WNW,294,0.0,4.0,67,0.00,,---,0.00,VWS V15.00,2017-10-16 16:55:00,
2017-10-16 13:00:00,57.4,46.9,30.32,West,266,0.0,3.0,68,0.00,,---,0.00,VWS V15.00,2017-10-16 17:00:00,
2017-10-16 13:05:00,57.5,46.2,30.32,NW,319,2.0,5.0,66,0.00,,---,0.00,VWS V15.00,2017-10-16 17:05:00,
2017-10-16 13:10:00,57.0,45.0,30.32,West,263,2.0,4.0,64,0.00,,---,0.00,VWS V15.00,2017-10-16 17:10:00,
2017-10-16 13:15:00,56.9,45.7,30.32,NW,313,3.0,4.0,66,0.00,,---,0.00,VWS V15.00,2017-10-16 17:15:00,
2017-10-16 13:25:00,56.8,45.6,30.31,SW,226,1.0,1.0,66,0.00,,---,0.00,VWS V15.00,2017-10-16 17:25:00,
2017-10-16 13:30:00,57.6,45.9,30.31,West,272,2.0,4.0,65,0.00,,---,0.00,VWS V15.00,2017-10-16 17:30:00,
2017-10-16 13:35:00,58.2,45.7,30.31,NNE,19,0.0,3.0,63,0.00,,---,0.00,VWS V15.00,2017-10-16 17:35:00,
2017-10-16 13:45:00,58.2,44.0,30.30,ENE,60,1.0,7.0,59,0.00,,---,0.00,VWS V15.00,2017-10-16 17:45:00,
2017-10-16 13:50:00,57.7,44.4,30.30,West,276,1.0,3.0,61,0.00,,---,0.00,VWS V15.00,2017-10-16 17:50:00,
2017-10-16 13:55:00,57.8,44.9,30.30,NW,324,2.0,5.0,62,0.00,,---,0.00,VWS V15.00,2017-10-16 17:55:00,
2017-10-16 14:00:00,58.5,44.7,30.30,West,280,1.0,3.0,60,0.00,,---,0.00,VWS V15.00,2017-10-16 18:00:00,
2017-10-16 14:05:00,59.3,45.0,30.29,WNW,283,1.0,4.0,59,0.00,,---,0.00,VWS V15.00,2017-10-16 18:05:00,
2017-10-16 14:15:00,60.9,44.2,30.29,NE,46,6.0,6.0,54,0.00,,---,0.00,VWS V15.00,2017-10-16 18:15:00,
2017-10-16 14:20:00,60.7,43.5,30.29,NW,324,3.0,6.0,53,0.00,,---,0.00,VWS V15.00,2017-10-16 18:20:00,
2017-10-16 14:30:00,60.5,44.3,30.29,NW,322,3.0,7.0,55,0.00,,---,0.00,VWS V15.00,2017-10-16 18:30:00,
2017-10-16 14:35:00,59.5,43.8,30.29,NW,316,1.0,5.0,56,0.00,,---,0.00,VWS V15.00,2017-10-16 18:35:00,
2017-10-16 14:40:00,58.5,43.3,30.29,WNW,303,2.0,4.0,57,0.00,,---,0.00,VWS V15.00,2017-10-16 18:40:00,
2017-10-16 14:50:00,57.6,43.4,30.28,West,281,0.0,2.0,59,0.00,,---,0.00,VWS V15.00,2017-10-16 18:50:00,
2017-10-16 14:55:00,57.4,43.6,30.28,WNW,298,0.0,2.0,60,0.00,,---,0.00,VWS V15.00,2017-10-16 18:55:00,
2017-10-16 15:00:00,57.4,44.1,30.28,NW,321,2.0,3.0,61,0.00,,---,0.00,VWS V15.00,2017-10-16 19:00:00,
2017-10-16 15:10:00,58.5,42.9,30.28,West,267,3.0,4.0,56,0.00,,---,0.00,VWS V15.00,2017-10-16 19:10:00,
2017-10-16 15:15:00,59.1,43.0,30.28,NW,310,0.0,3.0,55,0.00,,---,0.00,VWS V15.00,2017-10-16 19:15:00,
2017-10-16 15:25:00,60.1,43.4,30.28,West,269,1.0,2.0,54,0.00,,---,0.00,VWS V15.00,2017-10-16 19:25:00,
2017-10-16 15:30:00,60.2,42.5,30.28,North,351,3.0,4.0,52,0.00,,---,0.00,VWS V15.00,2017-10-16 19:30:00,
2017-10-16 15:40:00,60.1,42.4,30.28,NW,306,3.0,6.0,52,0.00,,---,0.00,VWS V15.00,2017-10-16 19:40:00,
2017-10-16 15:50:00,58.9,41.8,30.28,NNW,340,0.0,2.0,53,0.00,,---,0.00,VWS V15.00,2017-10-16 19:50:00,
2017-10-16 16:00:00,58.0,41.0,30.28,North,357,1.0,3.0,53,0.00,,---,0.00,VWS V15.00,2017-10-16 20:00:00,
2017-10-16 16:10:00,57.8,41.3,30.28,NW,316,1.0,3.0,54,0.00,,---,0.00,VWS V15.00,2017-10-16 20:10:00,
2017-10-16 16:15:00,57.7,41.2,30.28,NW,322,1.0,3.0,54,0.00,,---,0.00,VWS V15.00,2017-10-16 20:15:00,
2017-10-16 16:20:00,57.7,41.7,30.28,NNW,338,0.0,3.0,55,0.00,,---,0.00,VWS V15.00,2017-10-16 20:20:00,
2017-10-16 16:25:00,57.8,41.3,30.28,NW,314,1.0,2.0,54,0.00,,---,0.00,VWS V15.00,2017-10-16 20:25:00,
2017-10-16 16:30:00,57.8,42.2,30.28,NW,313,0.0,1.0,56,0.00,,---,0.00,VWS V15.00,2017-10-16 20:30:00,
2017-10-16 16:35:00,57.8,41.8,30.28,NW,314,0.0,1.0,55,0.00,,---,0.00,VWS V15.00,2017-10-16 20:35:00,
2017-10-16 16:40:00,57.7,41.7,30.28,WNW,293,1.0,4.0,55,0.00,,---,0.00,VWS V15.00,2017-10-16 20:40:00,
2017-10-16 16:50:00,57.8,41.3,30.28,WNW,293,0.0,1.0,54,0.00,,---,0.00,VWS V15.00,2017-10-16 20:50:00,
2017-10-16 16:55:00,58.2,41.7,30.28,WNW,297,0.0,1.0,54,0.00,,---,0.00,VWS V15.00,2017-10-16 20:55:00,
2017-10-16 17:00:00,58.9,41.3,30.28,ENE,64,4.0,5.0,52,0.00,,---,0.00,VWS V15.00,2017-10-16 21:00:00,
2017-10-16 17:05:00,59.2,40.1,30.27,West,278,0.0,5.0,49,0.00,,---,0.00,VWS V15.00,2017-10-16 21:05:00,
2017-10-16 17:10:00,59.3,40.7,30.27,NW,320,0.0,2.0,50,0.00,,---,0.00,VWS V15.00,2017-10-16 21:10:00,
2017-10-16 17:20:00,59.6,41.0,30.27,NW,312,2.0,3.0,50,0.00,,---,0.00,VWS V15.00,2017-10-16 21:20:00,
2017-10-16 17:25:00,59.5,40.9,30.27,WNW,300,2.0,4.0,50,0.00,,---,0.00,VWS V15.00,2017-10-16 21:25:00,
2017-10-16 17:30:00,59.6,41.0,30.27,NW,321,0.0,4.0,50,0.00,,---,0.00,VWS V15.00,2017-10-16 21:30:00,
2017-10-16 17:35:00,59.7,42.1,30.27,WNW,300,0.0,2.0,52,0.00,,---,0.00,VWS V15.00,2017-10-16 21:35:00,
2017-10-16 17:40:00,59.8,40.6,30.27,West,264,1.0,4.0,49,0.00,,---,0.00,VWS V15.00,2017-10-16 21:40:00,
2017-10-16 17:45:00,59.9,41.2,30.27,West,262,2.0,3.0,50,0.00,,---,0.00,VWS V15.00,2017-10-16 21:45:00,
2017-10-16 17:50:00,59.9,40.7,30.27,NW,316,2.0,4.0,49,0.00,,---,0.00,VWS V15.00,2017-10-16 21:50:00,
2017-10-16 17:55:00,59.9,41.8,30.27,WSW,256,0.0,2.0,51,0.00,,---,0.00,VWS V15.00,2017-10-16 21:55:00,
2017-10-16 18:00:00,59.9,41.2,30.27,West,276,0.0,3.0,50,0.00,,---,0.00,VWS V15.00,2017-10-16 22:00:00,
2017-10-16 18:10:00,59.4,41.3,30.27,NW,321,0.0,3.0,51,0.00,,---,0.00,VWS V15.00,2017-10-16 22:10:00,
2017-10-16 18:15:00,59.0,40.9,30.27,North,354,1.0,3.0,51,0.00,,---,0.00,VWS V15.00,2017-10-16 22:15:00,
2017-10-16 18:20:00,58.7,41.1,30.27,NW,309,1.0,3.0,52,0.00,,---,0.00,VWS V15.00,2017-10-16 22:20:00,
2017-10-16 18:25:00,58.5,41.0,30.27,North,349,2.0,4.0,52,0.00,,---,0.00,VWS V15.00,2017-10-16 22:25:00,
2017-10-16 18:30:00,58.3,41.3,30.27,North,352,0.0,4.0,53,0.00,,---,0.00,VWS V15.00,2017-10-16 22:30:00,
2017-10-16 18:40:00,57.7,41.2,30.27,North,354,0.0,0.0,54,0.00,,---,0.00,VWS V15.00,2017-10-16 22:40:00,